sensor_id;sensor_type;location;lat;lon;timestamp;P1;durP1;ratioP1;P2;durP2;ratioP2
13331;SDS011;6735;51.456;12.626;2022-11-15T00:01:44;43.20;;;30.73;;
13331;SDS011;6735;51.456;12.626;2022-11-15T00:04:10;41.53;;;29.43;;
13331;SDS011;6735;51.456;12.626;2022-11-15T00:06:35;41.43;;;29.93;;
13331;SDS011;6735;51.456;12.626;2022-11-15T00:09:01;41.53;;;30.03;;
13331;SDS011;6735;51.456;12.626;2022-11-15T00:11:27;41.07;;;29.60;;
13331;SDS011;6735;51.456;12.626;2022-11-15T00:13:56;41.50;;;28.70;;
13331;SDS011;6735;51.456;12.626;2022-11-15T00:16:23;36.20;;;26.57;;
13331;SDS011;6735;51.456;12.626;2022-11-15T00:18:49;39.03;;;29.00;;
13331;SDS011;6735;51.456;12.626;2022-11-15T00:21:15;38.30;;;28.40;;
13331;SDS011;6735;51.456;12.626;2022-11-15T00:23:41;38.97;;;27.77;;
13331;SDS011;6735;51.456;12.626;2022-11-15T00:26:07;40.20;;;28.47;;
13331;SDS011;6735;51.456;12.626;2022-11-15T00:28:37;37.53;;;27.43;;
13331;SDS011;6735;51.456;12.626;2022-11-15T00:31:03;35.43;;;26.30;;
13331;SDS011;6735;51.456;12.626;2022-11-15T00:33:31;36.17;;;26.80;;
13331;SDS011;6735;51.456;12.626;2022-11-15T00:36:01;36.13;;;26.70;;
13331;SDS011;6735;51.456;12.626;2022-11-15T00:38:33;38.63;;;26.63;;
13331;SDS011;6735;51.456;12.626;2022-11-15T00:41:00;35.80;;;25.67;;
13331;SDS011;6735;51.456;12.626;2022-11-15T00:43:26;32.40;;;25.27;;
13331;SDS011;6735;51.456;12.626;2022-11-15T00:45:51;34.67;;;26.27;;
13331;SDS011;6735;51.456;12.626;2022-11-15T00:48:17;33.97;;;25.17;;
13331;SDS011;6735;51.456;12.626;2022-11-15T00:50:43;32.20;;;24.70;;
13331;SDS011;6735;51.456;12.626;2022-11-15T00:53:08;32.10;;;24.40;;
13331;SDS011;6735;51.456;12.626;2022-11-15T00:55:34;35.60;;;25.47;;
13331;SDS011;6735;51.456;12.626;2022-11-15T00:58:00;32.43;;;24.63;;
13331;SDS011;6735;51.456;12.626;2022-11-15T01:00:25;31.47;;;24.23;;
13331;SDS011;6735;51.456;12.626;2022-11-15T01:02:51;29.37;;;23.23;;
13331;SDS011;6735;51.456;12.626;2022-11-15T01:05:16;30.43;;;24.07;;
13331;SDS011;6735;51.456;12.626;2022-11-15T01:07:42;29.23;;;22.70;;
13331;SDS011;6735;51.456;12.626;2022-11-15T01:10:08;29.17;;;22.70;;
13331;SDS011;6735;51.456;12.626;2022-11-15T01:12:33;29.37;;;22.67;;
13331;SDS011;6735;51.456;12.626;2022-11-15T01:14:59;28.73;;;22.33;;
13331;SDS011;6735;51.456;12.626;2022-11-15T01:17:25;29.40;;;22.30;;
13331;SDS011;6735;51.456;12.626;2022-11-15T01:19:51;29.27;;;21.90;;
13331;SDS011;6735;51.456;12.626;2022-11-15T01:22:17;27.40;;;21.77;;
13331;SDS011;6735;51.456;12.626;2022-11-15T01:24:42;29.47;;;22.30;;
13331;SDS011;6735;51.456;12.626;2022-11-15T01:27:08;28.07;;;20.90;;
13331;SDS011;6735;51.456;12.626;2022-11-15T01:29:34;28.27;;;21.97;;
13331;SDS011;6735;51.456;12.626;2022-11-15T01:31:59;29.90;;;22.00;;
13331;SDS011;6735;51.456;12.626;2022-11-15T01:34:25;30.80;;;23.37;;
13331;SDS011;6735;51.456;12.626;2022-11-15T01:36:51;31.30;;;22.23;;
13331;SDS011;6735;51.456;12.626;2022-11-15T01:39:16;26.93;;;20.77;;
13331;SDS011;6735;51.456;12.626;2022-11-15T01:41:42;28.03;;;21.27;;
13331;SDS011;6735;51.456;12.626;2022-11-15T01:44:42;29.00;;;20.53;;
13331;SDS011;6735;51.456;12.626;2022-11-15T01:47:09;26.27;;;19.97;;
13331;SDS011;6735;51.456;12.626;2022-11-15T01:49:53;26.40;;;19.73;;
13331;SDS011;6735;51.456;12.626;2022-11-15T01:52:32;27.20;;;19.67;;
13331;SDS011;6735;51.456;12.626;2022-11-15T01:57:31;26.43;;;19.87;;
13331;SDS011;6735;51.456;12.626;2022-11-15T01:59:57;26.33;;;19.80;;
13331;SDS011;6735;51.456;12.626;2022-11-15T02:02:25;25.67;;;20.03;;
13331;SDS011;6735;51.456;12.626;2022-11-15T02:04:51;24.97;;;20.13;;
13331;SDS011;6735;51.456;12.626;2022-11-15T02:07:17;24.70;;;18.97;;
13331;SDS011;6735;51.456;12.626;2022-11-15T02:09:47;23.30;;;18.70;;
13331;SDS011;6735;51.456;12.626;2022-11-15T02:12:15;23.87;;;18.37;;
13331;SDS011;6735;51.456;12.626;2022-11-15T02:14:44;23.83;;;18.53;;
13331;SDS011;6735;51.456;12.626;2022-11-15T02:23:13;26.63;;;17.97;;
13331;SDS011;6735;51.456;12.626;2022-11-15T02:29:14;23.07;;;17.83;;
13331;SDS011;6735;51.456;12.626;2022-11-15T02:42:00;23.23;;;16.57;;
13331;SDS011;6735;51.456;12.626;2022-11-15T02:44:58;18.90;;;15.70;;
13331;SDS011;6735;51.456;12.626;2022-11-15T02:47:29;19.60;;;15.20;;
13331;SDS011;6735;51.456;12.626;2022-11-15T02:50:06;18.63;;;15.20;;
13331;SDS011;6735;51.456;12.626;2022-11-15T02:52:35;17.30;;;15.00;;
13331;SDS011;6735;51.456;12.626;2022-11-15T02:55:01;18.17;;;15.10;;
13331;SDS011;6735;51.456;12.626;2022-11-15T03:07:43;17.97;;;14.73;;
13331;SDS011;6735;51.456;12.626;2022-11-15T03:10:30;17.90;;;13.67;;
13331;SDS011;6735;51.456;12.626;2022-11-15T03:13:16;16.23;;;12.97;;
13331;SDS011;6735;51.456;12.626;2022-11-15T03:15:44;16.80;;;13.10;;
13331;SDS011;6735;51.456;12.626;2022-11-15T03:18:30;16.13;;;12.70;;
13331;SDS011;6735;51.456;12.626;2022-11-15T03:20:59;15.73;;;12.87;;
13331;SDS011;6735;51.456;12.626;2022-11-15T03:23:28;17.10;;;13.00;;
13331;SDS011;6735;51.456;12.626;2022-11-15T03:25:55;17.20;;;13.50;;
13331;SDS011;6735;51.456;12.626;2022-11-15T03:28:34;15.73;;;12.20;;
13331;SDS011;6735;51.456;12.626;2022-11-15T03:31:04;16.03;;;13.43;;
13331;SDS011;6735;51.456;12.626;2022-11-15T03:33:51;15.43;;;13.10;;
13331;SDS011;6735;51.456;12.626;2022-11-15T03:36:19;16.50;;;12.67;;
13331;SDS011;6735;51.456;12.626;2022-11-15T03:38:48;15.43;;;13.53;;
13331;SDS011;6735;51.456;12.626;2022-11-15T03:41:20;15.37;;;12.93;;
13331;SDS011;6735;51.456;12.626;2022-11-15T03:43:52;14.93;;;13.03;;
13331;SDS011;6735;51.456;12.626;2022-11-15T03:49:08;19.40;;;14.03;;
13331;SDS011;6735;51.456;12.626;2022-11-15T03:51:38;16.63;;;13.23;;
13331;SDS011;6735;51.456;12.626;2022-11-15T03:54:04;17.83;;;14.03;;
13331;SDS011;6735;51.456;12.626;2022-11-15T03:56:30;16.73;;;13.67;;
13331;SDS011;6735;51.456;12.626;2022-11-15T03:58:55;16.03;;;13.03;;
13331;SDS011;6735;51.456;12.626;2022-11-15T04:01:21;14.37;;;12.33;;
13331;SDS011;6735;51.456;12.626;2022-11-15T04:03:47;18.23;;;13.43;;
13331;SDS011;6735;51.456;12.626;2022-11-15T04:06:12;15.93;;;13.30;;
13331;SDS011;6735;51.456;12.626;2022-11-15T04:08:38;20.07;;;14.07;;
13331;SDS011;6735;51.456;12.626;2022-11-15T04:11:04;16.77;;;13.97;;
13331;SDS011;6735;51.456;12.626;2022-11-15T04:13:29;19.13;;;14.73;;
13331;SDS011;6735;51.456;12.626;2022-11-15T04:15:55;19.63;;;14.57;;
13331;SDS011;6735;51.456;12.626;2022-11-15T04:18:20;19.30;;;15.00;;
13331;SDS011;6735;51.456;12.626;2022-11-15T04:20:46;17.73;;;14.50;;
13331;SDS011;6735;51.456;12.626;2022-11-15T04:23:31;17.80;;;14.67;;
13331;SDS011;6735;51.456;12.626;2022-11-15T04:26:16;17.67;;;14.17;;
13331;SDS011;6735;51.456;12.626;2022-11-15T04:28:44;23.60;;;19.10;;
13331;SDS011;6735;51.456;12.626;2022-11-15T04:31:29;22.02;;;19.02;;
13331;SDS011;6735;51.456;12.626;2022-11-15T04:33:54;20.53;;;16.13;;
13331;SDS011;6735;51.456;12.626;2022-11-15T04:36:20;18.37;;;14.83;;
13331;SDS011;6735;51.456;12.626;2022-11-15T04:39:05;18.00;;;14.50;;
13331;SDS011;6735;51.456;12.626;2022-11-15T04:41:31;18.87;;;15.43;;
13331;SDS011;6735;51.456;12.626;2022-11-15T04:43:56;19.47;;;15.70;;
13331;SDS011;6735;51.456;12.626;2022-11-15T04:46:22;21.17;;;17.93;;
13331;SDS011;6735;51.456;12.626;2022-11-15T04:48:49;21.67;;;18.67;;
13331;SDS011;6735;51.456;12.626;2022-11-15T04:51:15;20.80;;;16.57;;
13331;SDS011;6735;51.456;12.626;2022-11-15T04:53:41;19.00;;;15.60;;
13331;SDS011;6735;51.456;12.626;2022-11-15T04:56:07;18.83;;;15.30;;
13331;SDS011;6735;51.456;12.626;2022-11-15T04:58:33;20.23;;;15.10;;
13331;SDS011;6735;51.456;12.626;2022-11-15T05:01:05;20.90;;;16.07;;
13331;SDS011;6735;51.456;12.626;2022-11-15T05:03:34;22.73;;;15.57;;
13331;SDS011;6735;51.456;12.626;2022-11-15T05:06:19;19.23;;;15.90;;
13331;SDS011;6735;51.456;12.626;2022-11-15T05:08:44;22.30;;;16.67;;
13331;SDS011;6735;51.456;12.626;2022-11-15T05:11:10;19.57;;;16.17;;
13331;SDS011;6735;51.456;12.626;2022-11-15T05:13:36;22.90;;;17.37;;
13331;SDS011;6735;51.456;12.626;2022-11-15T05:16:01;23.47;;;16.67;;
13331;SDS011;6735;51.456;12.626;2022-11-15T05:18:27;19.13;;;15.80;;
13331;SDS011;6735;51.456;12.626;2022-11-15T05:20:53;22.67;;;17.07;;
13331;SDS011;6735;51.456;12.626;2022-11-15T05:23:18;23.07;;;17.83;;
13331;SDS011;6735;51.456;12.626;2022-11-15T05:25:44;20.67;;;16.37;;
13331;SDS011;6735;51.456;12.626;2022-11-15T05:28:10;20.33;;;14.80;;
13331;SDS011;6735;51.456;12.626;2022-11-15T05:30:35;20.73;;;15.40;;
13331;SDS011;6735;51.456;12.626;2022-11-15T05:33:01;16.90;;;13.90;;
13331;SDS011;6735;51.456;12.626;2022-11-15T05:35:31;15.13;;;13.53;;
13331;SDS011;6735;51.456;12.626;2022-11-15T05:38:04;16.13;;;13.63;;
13331;SDS011;6735;51.456;12.626;2022-11-15T05:40:30;16.10;;;13.47;;
13331;SDS011;6735;51.456;12.626;2022-11-15T05:42:58;18.03;;;13.73;;
13331;SDS011;6735;51.456;12.626;2022-11-15T05:45:31;16.37;;;13.10;;
13331;SDS011;6735;51.456;12.626;2022-11-15T05:47:58;17.50;;;13.07;;
13331;SDS011;6735;51.456;12.626;2022-11-15T05:50:28;15.17;;;12.50;;
13331;SDS011;6735;51.456;12.626;2022-11-15T05:52:54;14.80;;;12.57;;
13331;SDS011;6735;51.456;12.626;2022-11-15T05:55:20;13.50;;;11.83;;
13331;SDS011;6735;51.456;12.626;2022-11-15T05:57:46;15.33;;;12.53;;
13331;SDS011;6735;51.456;12.626;2022-11-15T06:00:12;16.40;;;12.47;;
13331;SDS011;6735;51.456;12.626;2022-11-15T06:02:38;13.57;;;12.07;;
13331;SDS011;6735;51.456;12.626;2022-11-15T06:05:04;14.03;;;11.40;;
13331;SDS011;6735;51.456;12.626;2022-11-15T06:07:30;13.97;;;11.87;;
13331;SDS011;6735;51.456;12.626;2022-11-15T06:09:55;15.10;;;11.40;;
13331;SDS011;6735;51.456;12.626;2022-11-15T06:12:21;14.80;;;12.03;;
13331;SDS011;6735;51.456;12.626;2022-11-15T06:14:46;14.73;;;13.07;;
13331;SDS011;6735;51.456;12.626;2022-11-15T06:17:12;18.20;;;13.77;;
13331;SDS011;6735;51.456;12.626;2022-11-15T06:19:38;19.37;;;14.17;;
13331;SDS011;6735;51.456;12.626;2022-11-15T06:22:03;17.53;;;12.87;;
13331;SDS011;6735;51.456;12.626;2022-11-15T06:24:29;15.73;;;13.10;;
13331;SDS011;6735;51.456;12.626;2022-11-15T06:26:55;15.13;;;12.33;;
13331;SDS011;6735;51.456;12.626;2022-11-15T06:29:20;17.80;;;13.37;;
13331;SDS011;6735;51.456;12.626;2022-11-15T06:31:46;16.50;;;13.00;;
13331;SDS011;6735;51.456;12.626;2022-11-15T06:34:11;14.10;;;12.07;;
13331;SDS011;6735;51.456;12.626;2022-11-15T06:36:37;14.17;;;12.17;;
13331;SDS011;6735;51.456;12.626;2022-11-15T06:39:03;15.17;;;12.70;;
13331;SDS011;6735;51.456;12.626;2022-11-15T06:41:29;18.67;;;13.40;;
13331;SDS011;6735;51.456;12.626;2022-11-15T06:43:55;13.97;;;12.33;;
13331;SDS011;6735;51.456;12.626;2022-11-15T06:46:21;16.03;;;13.17;;
13331;SDS011;6735;51.456;12.626;2022-11-15T06:48:47;17.13;;;12.23;;
13331;SDS011;6735;51.456;12.626;2022-11-15T06:51:14;17.90;;;14.63;;
13331;SDS011;6735;51.456;12.626;2022-11-15T06:53:39;16.23;;;13.17;;
13331;SDS011;6735;51.456;12.626;2022-11-15T06:56:05;17.40;;;13.33;;
13331;SDS011;6735;51.456;12.626;2022-11-15T06:58:32;13.90;;;12.50;;
13331;SDS011;6735;51.456;12.626;2022-11-15T07:01:05;14.17;;;11.73;;
13331;SDS011;6735;51.456;12.626;2022-11-15T07:03:36;12.90;;;11.17;;
13331;SDS011;6735;51.456;12.626;2022-11-15T07:06:04;11.77;;;10.53;;
13331;SDS011;6735;51.456;12.626;2022-11-15T07:08:30;11.93;;;10.03;;
13331;SDS011;6735;51.456;12.626;2022-11-15T07:10:59;12.93;;;11.43;;
13331;SDS011;6735;51.456;12.626;2022-11-15T07:13:27;11.73;;;10.10;;
13331;SDS011;6735;51.456;12.626;2022-11-15T07:15:54;11.83;;;9.40;;
13331;SDS011;6735;51.456;12.626;2022-11-15T07:18:20;9.67;;;8.70;;
13331;SDS011;6735;51.456;12.626;2022-11-15T07:20:46;12.53;;;9.13;;
13331;SDS011;6735;51.456;12.626;2022-11-15T07:23:11;9.80;;;8.80;;
13331;SDS011;6735;51.456;12.626;2022-11-15T07:25:37;9.47;;;8.50;;
13331;SDS011;6735;51.456;12.626;2022-11-15T07:28:03;9.50;;;8.57;;
13331;SDS011;6735;51.456;12.626;2022-11-15T07:30:29;8.87;;;8.07;;
13331;SDS011;6735;51.456;12.626;2022-11-15T07:32:55;10.47;;;8.13;;
13331;SDS011;6735;51.456;12.626;2022-11-15T07:35:23;9.10;;;8.17;;
13331;SDS011;6735;51.456;12.626;2022-11-15T07:37:56;8.53;;;7.53;;
13331;SDS011;6735;51.456;12.626;2022-11-15T07:40:24;9.37;;;8.30;;
13331;SDS011;6735;51.456;12.626;2022-11-15T07:43:01;9.30;;;8.40;;
13331;SDS011;6735;51.456;12.626;2022-11-15T07:45:27;9.27;;;8.10;;
13331;SDS011;6735;51.456;12.626;2022-11-15T07:47:54;9.40;;;8.50;;
13331;SDS011;6735;51.456;12.626;2022-11-15T07:50:21;10.10;;;8.60;;
13331;SDS011;6735;51.456;12.626;2022-11-15T07:52:52;9.23;;;8.30;;
13331;SDS011;6735;51.456;12.626;2022-11-15T07:55:25;10.17;;;9.17;;
13331;SDS011;6735;51.456;12.626;2022-11-15T07:58:04;11.40;;;10.00;;
13331;SDS011;6735;51.456;12.626;2022-11-15T08:00:31;12.13;;;9.33;;
13331;SDS011;6735;51.456;12.626;2022-11-15T08:05:31;11.03;;;9.80;;
13331;SDS011;6735;51.456;12.626;2022-11-15T08:07:58;10.50;;;9.50;;
13331;SDS011;6735;51.456;12.626;2022-11-15T08:10:24;10.53;;;9.27;;
13331;SDS011;6735;51.456;12.626;2022-11-15T08:13:00;11.53;;;9.37;;
13331;SDS011;6735;51.456;12.626;2022-11-15T08:15:27;10.40;;;9.33;;
13331;SDS011;6735;51.456;12.626;2022-11-15T08:17:58;11.00;;;8.80;;
13331;SDS011;6735;51.456;12.626;2022-11-15T08:20:25;11.37;;;8.70;;
13331;SDS011;6735;51.456;12.626;2022-11-15T08:22:54;11.50;;;8.90;;
13331;SDS011;6735;51.456;12.626;2022-11-15T08:25:23;11.00;;;9.00;;
13331;SDS011;6735;51.456;12.626;2022-11-15T08:27:54;9.80;;;8.80;;
13331;SDS011;6735;51.456;12.626;2022-11-15T08:30:20;9.07;;;8.17;;
13331;SDS011;6735;51.456;12.626;2022-11-15T08:32:47;10.77;;;8.20;;
13331;SDS011;6735;51.456;12.626;2022-11-15T08:35:13;8.40;;;7.60;;
13331;SDS011;6735;51.456;12.626;2022-11-15T08:37:39;8.73;;;7.70;;
13331;SDS011;6735;51.456;12.626;2022-11-15T08:40:05;8.60;;;7.20;;
13331;SDS011;6735;51.456;12.626;2022-11-15T08:42:31;8.50;;;7.37;;
13331;SDS011;6735;51.456;12.626;2022-11-15T08:45:10;7.90;;;7.10;;
13331;SDS011;6735;51.456;12.626;2022-11-15T08:47:35;7.67;;;6.97;;
13331;SDS011;6735;51.456;12.626;2022-11-15T08:50:01;7.90;;;7.10;;
13331;SDS011;6735;51.456;12.626;2022-11-15T08:52:26;8.80;;;7.60;;
13331;SDS011;6735;51.456;12.626;2022-11-15T08:54:52;9.07;;;7.47;;
13331;SDS011;6735;51.456;12.626;2022-11-15T08:57:17;9.83;;;7.33;;
13331;SDS011;6735;51.456;12.626;2022-11-15T08:59:43;8.50;;;7.27;;
13331;SDS011;6735;51.456;12.626;2022-11-15T09:02:12;8.70;;;7.50;;
13331;SDS011;6735;51.456;12.626;2022-11-15T09:04:40;10.73;;;7.47;;
13331;SDS011;6735;51.456;12.626;2022-11-15T09:07:06;7.57;;;6.87;;
13331;SDS011;6735;51.456;12.626;2022-11-15T09:09:32;7.60;;;6.90;;
13331;SDS011;6735;51.456;12.626;2022-11-15T09:11:57;7.53;;;6.67;;
13331;SDS011;6735;51.456;12.626;2022-11-15T09:14:23;7.47;;;6.67;;
13331;SDS011;6735;51.456;12.626;2022-11-15T09:16:48;7.20;;;6.60;;
13331;SDS011;6735;51.456;12.626;2022-11-15T09:19:14;8.27;;;7.47;;
13331;SDS011;6735;51.456;12.626;2022-11-15T09:21:40;8.60;;;7.17;;
13331;SDS011;6735;51.456;12.626;2022-11-15T09:24:05;9.93;;;7.10;;
13331;SDS011;6735;51.456;12.626;2022-11-15T09:26:31;8.27;;;7.47;;
13331;SDS011;6735;51.456;12.626;2022-11-15T09:28:56;8.30;;;7.60;;
13331;SDS011;6735;51.456;12.626;2022-11-15T09:31:22;8.00;;;7.20;;
13331;SDS011;6735;51.456;12.626;2022-11-15T09:33:47;8.00;;;7.20;;
13331;SDS011;6735;51.456;12.626;2022-11-15T09:36:13;7.27;;;6.57;;
13331;SDS011;6735;51.456;12.626;2022-11-15T09:38:38;9.10;;;6.90;;
13331;SDS011;6735;51.456;12.626;2022-11-15T09:46:21;7.30;;;6.60;;
13331;SDS011;6735;51.456;12.626;2022-11-15T09:48:52;7.57;;;6.73;;
13331;SDS011;6735;51.456;12.626;2022-11-15T09:51:27;7.00;;;6.30;;
13331;SDS011;6735;51.456;12.626;2022-11-15T09:56:22;7.33;;;6.63;;
13331;SDS011;6735;51.456;12.626;2022-11-15T10:04:36;9.03;;;6.10;;
13331;SDS011;6735;51.456;12.626;2022-11-15T10:07:05;7.97;;;5.97;;
13331;SDS011;6735;51.456;12.626;2022-11-15T10:10:03;6.10;;;5.50;;
13331;SDS011;6735;51.456;12.626;2022-11-15T10:12:50;7.50;;;6.37;;
13331;SDS011;6735;51.456;12.626;2022-11-15T10:15:17;7.70;;;5.67;;
13331;SDS011;6735;51.456;12.626;2022-11-15T10:20:50;6.83;;;5.83;;
13331;SDS011;6735;51.456;12.626;2022-11-15T10:23:22;9.20;;;6.33;;
13331;SDS011;6735;51.456;12.626;2022-11-15T10:25:50;6.87;;;6.10;;
13331;SDS011;6735;51.456;12.626;2022-11-15T10:28:29;6.77;;;6.07;;
13331;SDS011;6735;51.456;12.626;2022-11-15T10:30:59;6.80;;;6.03;;
13331;SDS011;6735;51.456;12.626;2022-11-15T10:38:33;5.87;;;5.27;;
13331;SDS011;6735;51.456;12.626;2022-11-15T10:41:28;6.43;;;5.83;;
13331;SDS011;6735;51.456;12.626;2022-11-15T10:44:11;7.33;;;6.20;;
13331;SDS011;6735;51.456;12.626;2022-11-15T10:46:45;11.13;;;6.57;;
13331;SDS011;6735;51.456;12.626;2022-11-15T10:49:17;7.63;;;6.67;;
13331;SDS011;6735;51.456;12.626;2022-11-15T10:54:39;8.40;;;5.83;;
13331;SDS011;6735;51.456;12.626;2022-11-15T10:57:13;7.20;;;5.50;;
13331;SDS011;6735;51.456;12.626;2022-11-15T10:59:50;7.07;;;5.20;;
13331;SDS011;6735;51.456;12.626;2022-11-15T11:02:29;5.80;;;4.93;;
13331;SDS011;6735;51.456;12.626;2022-11-15T11:05:03;5.47;;;4.93;;
13331;SDS011;6735;51.456;12.626;2022-11-15T11:07:32;5.50;;;5.00;;
13331;SDS011;6735;51.456;12.626;2022-11-15T11:10:21;5.53;;;5.03;;
13331;SDS011;6735;51.456;12.626;2022-11-15T11:12:47;9.00;;;4.70;;
13331;SDS011;6735;51.456;12.626;2022-11-15T11:15:13;6.50;;;4.93;;
13331;SDS011;6735;51.456;12.626;2022-11-15T11:20:18;6.37;;;4.50;;
13331;SDS011;6735;51.456;12.626;2022-11-15T11:25:51;5.00;;;4.50;;
13331;SDS011;6735;51.456;12.626;2022-11-15T11:31:43;6.13;;;4.30;;
13331;SDS011;6735;51.456;12.626;2022-11-15T11:34:37;6.27;;;4.47;;
13331;SDS011;6735;51.456;12.626;2022-11-15T11:40:28;5.10;;;4.60;;
13331;SDS011;6735;51.456;12.626;2022-11-15T11:43:08;8.33;;;4.77;;
13331;SDS011;6735;51.456;12.626;2022-11-15T11:48:57;5.13;;;4.33;;
13331;SDS011;6735;51.456;12.626;2022-11-15T11:51:28;4.90;;;4.40;;
13331;SDS011;6735;51.456;12.626;2022-11-15T11:54:35;5.77;;;4.63;;
13331;SDS011;6735;51.456;12.626;2022-11-15T11:57:00;6.10;;;4.10;;
13331;SDS011;6735;51.456;12.626;2022-11-15T11:59:50;5.20;;;4.47;;
13331;SDS011;6735;51.456;12.626;2022-11-15T12:02:27;5.70;;;3.80;;
13331;SDS011;6735;51.456;12.626;2022-11-15T12:11:09;4.73;;;4.23;;
13331;SDS011;6735;51.456;12.626;2022-11-15T12:13:44;5.27;;;4.60;;
13331;SDS011;6735;51.456;12.626;2022-11-15T12:16:22;5.93;;;4.13;;
13331;SDS011;6735;51.456;12.626;2022-11-15T12:18:56;7.13;;;4.30;;
13331;SDS011;6735;51.456;12.626;2022-11-15T12:21:43;7.07;;;4.20;;
13331;SDS011;6735;51.456;12.626;2022-11-15T12:24:16;5.07;;;4.43;;
13331;SDS011;6735;51.456;12.626;2022-11-15T12:26:54;4.27;;;3.87;;
13331;SDS011;6735;51.456;12.626;2022-11-15T12:29:47;6.67;;;4.40;;
13331;SDS011;6735;51.456;12.626;2022-11-15T12:34:53;4.73;;;4.03;;
13331;SDS011;6735;51.456;12.626;2022-11-15T12:42:36;5.40;;;4.47;;
13331;SDS011;6735;51.456;12.626;2022-11-15T13:02:18;4.30;;;4.00;;
13331;SDS011;6735;51.456;12.626;2022-11-15T13:06:49;6.60;;;4.30;;
13331;SDS011;6735;51.456;12.626;2022-11-15T13:11:57;4.80;;;4.17;;
13331;SDS011;6735;51.456;12.626;2022-11-15T13:19:48;4.90;;;4.10;;
13331;SDS011;6735;51.456;12.626;2022-11-15T13:22:20;5.00;;;4.50;;
13331;SDS011;6735;51.456;12.626;2022-11-15T13:25:04;4.37;;;3.97;;
13331;SDS011;6735;51.456;12.626;2022-11-15T13:27:58;5.13;;;3.90;;
13331;SDS011;6735;51.456;12.626;2022-11-15T13:30:26;4.73;;;4.23;;
13331;SDS011;6735;51.456;12.626;2022-11-15T13:32:54;5.53;;;4.50;;
13331;SDS011;6735;51.456;12.626;2022-11-15T13:35:20;4.90;;;4.40;;
13331;SDS011;6735;51.456;12.626;2022-11-15T13:37:50;5.17;;;4.30;;
13331;SDS011;6735;51.456;12.626;2022-11-15T13:40:25;5.70;;;4.17;;
13331;SDS011;6735;51.456;12.626;2022-11-15T13:42:52;6.27;;;4.53;;
13331;SDS011;6735;51.456;12.626;2022-11-15T13:45:19;5.90;;;4.47;;
13331;SDS011;6735;51.456;12.626;2022-11-15T13:47:50;5.70;;;4.40;;
13331;SDS011;6735;51.456;12.626;2022-11-15T13:50:28;5.83;;;4.23;;
13331;SDS011;6735;51.456;12.626;2022-11-15T13:52:58;5.50;;;4.47;;
13331;SDS011;6735;51.456;12.626;2022-11-15T13:55:28;4.90;;;4.40;;
13331;SDS011;6735;51.456;12.626;2022-11-15T13:57:58;4.70;;;4.30;;
13331;SDS011;6735;51.456;12.626;2022-11-15T14:00:37;5.17;;;4.67;;
13331;SDS011;6735;51.456;12.626;2022-11-15T14:03:11;5.87;;;4.87;;
13331;SDS011;6735;51.456;12.626;2022-11-15T14:06:04;5.40;;;4.83;;
13331;SDS011;6735;51.456;12.626;2022-11-15T14:08:37;5.00;;;4.50;;
13331;SDS011;6735;51.456;12.626;2022-11-15T14:11:25;7.33;;;4.77;;
13331;SDS011;6735;51.456;12.626;2022-11-15T14:16:36;6.17;;;4.63;;
13331;SDS011;6735;51.456;12.626;2022-11-15T14:19:04;5.77;;;5.17;;
13331;SDS011;6735;51.456;12.626;2022-11-15T14:21:30;6.40;;;5.13;;
13331;SDS011;6735;51.456;12.626;2022-11-15T14:26:41;6.47;;;5.80;;
13331;SDS011;6735;51.456;12.626;2022-11-15T14:29:26;7.63;;;6.90;;
13331;SDS011;6735;51.456;12.626;2022-11-15T14:31:53;10.90;;;9.77;;
13331;SDS011;6735;51.456;12.626;2022-11-15T14:34:33;11.73;;;10.53;;
13331;SDS011;6735;51.456;12.626;2022-11-15T14:36:59;15.57;;;13.97;;
13331;SDS011;6735;51.456;12.626;2022-11-15T14:39:24;13.43;;;10.57;;
13331;SDS011;6735;51.456;12.626;2022-11-15T14:41:50;12.30;;;9.63;;
13331;SDS011;6735;51.456;12.626;2022-11-15T14:44:15;10.83;;;9.30;;
13331;SDS011;6735;51.456;12.626;2022-11-15T14:46:43;9.63;;;8.50;;
13331;SDS011;6735;51.456;12.626;2022-11-15T14:49:09;12.17;;;9.40;;
13331;SDS011;6735;51.456;12.626;2022-11-15T14:51:34;9.87;;;8.97;;
13331;SDS011;6735;51.456;12.626;2022-11-15T14:54:00;10.07;;;8.83;;
13331;SDS011;6735;51.456;12.626;2022-11-15T14:56:26;10.80;;;9.70;;
13331;SDS011;6735;51.456;12.626;2022-11-15T14:58:51;10.23;;;9.13;;
13331;SDS011;6735;51.456;12.626;2022-11-15T15:03:45;12.30;;;11.00;;
13331;SDS011;6735;51.456;12.626;2022-11-15T15:06:10;12.47;;;11.17;;
13331;SDS011;6735;51.456;12.626;2022-11-15T15:08:38;12.50;;;10.57;;
13331;SDS011;6735;51.456;12.626;2022-11-15T15:11:06;12.87;;;11.10;;
13331;SDS011;6735;51.456;12.626;2022-11-15T15:13:38;12.37;;;10.53;;
13331;SDS011;6735;51.456;12.626;2022-11-15T15:16:03;19.87;;;16.87;;
13331;SDS011;6735;51.456;12.626;2022-11-15T15:18:29;16.50;;;14.90;;
13331;SDS011;6735;51.456;12.626;2022-11-15T15:20:56;15.87;;;14.27;;
13331;SDS011;6735;51.456;12.626;2022-11-15T15:23:31;16.23;;;13.17;;
13331;SDS011;6735;51.456;12.626;2022-11-15T15:25:57;14.30;;;12.83;;
13331;SDS011;6735;51.456;12.626;2022-11-15T15:28:23;14.50;;;13.00;;
13331;SDS011;6735;51.456;12.626;2022-11-15T15:30:48;15.97;;;13.13;;
13331;SDS011;6735;51.456;12.626;2022-11-15T15:33:14;13.70;;;12.07;;
13331;SDS011;6735;51.456;12.626;2022-11-15T15:35:40;15.17;;;12.90;;
13331;SDS011;6735;51.456;12.626;2022-11-15T15:38:08;16.90;;;13.33;;
13331;SDS011;6735;51.456;12.626;2022-11-15T15:40:36;45.95;;;20.65;;
13331;SDS011;6735;51.456;12.626;2022-11-15T15:43:01;18.00;;;14.23;;
13331;SDS011;6735;51.456;12.626;2022-11-15T15:45:27;14.93;;;12.90;;
13331;SDS011;6735;51.456;12.626;2022-11-15T15:47:54;16.43;;;13.13;;
13331;SDS011;6735;51.456;12.626;2022-11-15T15:50:24;14.63;;;12.43;;
13331;SDS011;6735;51.456;12.626;2022-11-15T15:52:52;16.60;;;12.77;;
13331;SDS011;6735;51.456;12.626;2022-11-15T15:55:19;14.30;;;12.80;;
13331;SDS011;6735;51.456;12.626;2022-11-15T15:57:45;15.80;;;12.90;;
13331;SDS011;6735;51.456;12.626;2022-11-15T16:00:11;16.03;;;13.10;;
13331;SDS011;6735;51.456;12.626;2022-11-15T16:02:37;18.80;;;13.93;;
13331;SDS011;6735;51.456;12.626;2022-11-15T16:05:03;15.37;;;13.60;;
13331;SDS011;6735;51.456;12.626;2022-11-15T16:07:28;16.70;;;14.13;;
13331;SDS011;6735;51.456;12.626;2022-11-15T16:09:54;16.57;;;14.67;;
13331;SDS011;6735;51.456;12.626;2022-11-15T16:12:35;20.07;;;15.80;;
13331;SDS011;6735;51.456;12.626;2022-11-15T16:15:01;16.67;;;14.97;;
13331;SDS011;6735;51.456;12.626;2022-11-15T16:17:31;21.00;;;17.40;;
13331;SDS011;6735;51.456;12.626;2022-11-15T16:19:59;19.63;;;17.53;;
13331;SDS011;6735;51.456;12.626;2022-11-15T16:22:25;19.57;;;17.07;;
13331;SDS011;6735;51.456;12.626;2022-11-15T16:24:50;19.33;;;17.17;;
13331;SDS011;6735;51.456;12.626;2022-11-15T16:27:17;20.33;;;16.90;;
13331;SDS011;6735;51.456;12.626;2022-11-15T16:29:44;19.67;;;17.00;;
13331;SDS011;6735;51.456;12.626;2022-11-15T16:32:10;19.37;;;17.30;;
13331;SDS011;6735;51.456;12.626;2022-11-15T16:34:36;21.73;;;17.10;;
13331;SDS011;6735;51.456;12.626;2022-11-15T16:37:02;21.03;;;17.80;;
13331;SDS011;6735;51.456;12.626;2022-11-15T16:39:28;19.37;;;16.63;;
13331;SDS011;6735;51.456;12.626;2022-11-15T16:41:57;20.93;;;16.23;;
13331;SDS011;6735;51.456;12.626;2022-11-15T16:44:23;19.43;;;16.07;;
13331;SDS011;6735;51.456;12.626;2022-11-15T16:46:49;18.87;;;16.80;;
13331;SDS011;6735;51.456;12.626;2022-11-15T16:49:16;22.47;;;17.23;;
13331;SDS011;6735;51.456;12.626;2022-11-15T16:51:46;19.90;;;16.90;;